createdAt,value
2023-05-20T00:00:13.925Z,11.40
2023-05-20T00:03:03.046Z,10.00
2023-05-20T00:05:32.210Z,9.70
2023-05-20T00:08:04.160Z,10.40
2023-05-20T00:10:33.110Z,8.80
2023-05-20T00:13:02.181Z,10.00
2023-05-20T00:15:32.656Z,8.80
2023-05-20T00:18:03.454Z,9.30
2023-05-20T00:20:33.611Z,7.80
2023-05-20T00:23:02.545Z,10.30
2023-05-20T00:25:32.020Z,10.80
2023-05-20T00:28:01.352Z,10.40
2023-05-20T00:30:30.620Z,8.90
2023-05-20T00:32:59.779Z,9.30
2023-05-20T00:35:29.377Z,12.00
2023-05-20T00:37:58.499Z,7.60
2023-05-20T00:40:27.484Z,8.50
2023-05-20T00:42:56.591Z,8.70
2023-05-20T00:45:25.866Z,8.10
2023-05-20T00:47:59.147Z,8.80
2023-05-20T00:50:28.547Z,9.20
2023-05-20T00:52:58.297Z,9.00
2023-05-20T00:55:27.293Z,9.60
2023-05-20T00:57:56.557Z,10.70
2023-05-20T01:00:25.460Z,9.70
2023-05-20T01:02:56.714Z,7.70
2023-05-20T01:05:26.006Z,8.70
2023-05-20T01:07:55.422Z,7.40
2023-05-20T01:10:29.439Z,8.50
2023-05-20T01:13:03.769Z,8.40
2023-05-20T01:15:33.712Z,9.50
2023-05-20T01:18:06.911Z,8.10
2023-05-20T01:20:37.271Z,8.90
2023-05-20T01:23:06.317Z,8.10
2023-05-20T01:25:35.440Z,9.40
2023-05-20T01:28:05.464Z,10.00
2023-05-20T01:30:40.883Z,11.10
2023-05-20T01:33:12.549Z,6.80
2023-05-20T01:35:42.932Z,10.40
2023-05-20T01:38:13.839Z,8.10
2023-05-20T01:40:43.275Z,9.60
2023-05-20T01:43:13.416Z,8.40
2023-05-20T01:45:43.653Z,8.10
2023-05-20T01:48:13.081Z,9.60
2023-05-20T01:50:42.382Z,9.50
2023-05-20T01:53:12.848Z,9.20
2023-05-20T01:55:42.132Z,10.90
2023-05-20T01:58:11.247Z,9.30
2023-05-20T02:00:40.504Z,9.20
2023-05-20T02:03:09.591Z,11.60
2023-05-20T02:05:38.981Z,10.30
2023-05-20T02:08:08.536Z,8.30
2023-05-20T02:10:37.726Z,10.20
2023-05-20T02:13:06.778Z,11.00
2023-05-20T02:15:36.205Z,9.30
2023-05-20T02:18:07.819Z,7.90
2023-05-20T02:20:37.427Z,7.40
2023-05-20T02:23:06.366Z,10.60
2023-05-20T02:25:35.838Z,11.10
2023-05-20T02:28:10.080Z,8.40
2023-05-20T02:30:39.428Z,9.80
2023-05-20T02:33:09.201Z,9.30
2023-05-20T02:35:38.386Z,9.60
2023-05-20T02:38:07.486Z,10.50
2023-05-20T02:40:37.094Z,11.00
2023-05-20T02:43:06.199Z,10.10
2023-05-20T02:45:35.679Z,15.00
2023-05-20T02:48:05.338Z,12.20
2023-05-20T02:50:34.291Z,10.60
2023-05-20T02:53:03.204Z,9.70
2023-05-20T02:55:35.727Z,10.50
2023-05-20T02:58:04.816Z,10.10
2023-05-20T03:00:40.015Z,9.80
2023-05-20T03:03:10.228Z,9.90
2023-05-20T03:05:39.698Z,11.20
2023-05-20T03:08:10.280Z,10.90
2023-05-20T03:10:39.481Z,9.40
2023-05-20T03:13:10.764Z,10.60
2023-05-20T03:15:39.966Z,9.70
2023-05-20T03:18:09.281Z,11.40
2023-05-20T03:20:38.454Z,11.10
2023-05-20T03:23:08.182Z,12.20
2023-05-20T03:25:37.644Z,10.90
2023-05-20T03:28:06.952Z,10.90
2023-05-20T03:30:36.092Z,11.70
2023-05-20T03:33:05.692Z,10.20
2023-05-20T03:35:35.037Z,11.80
2023-05-20T03:38:04.120Z,11.10
2023-05-20T03:40:33.377Z,12.00
2023-05-20T03:43:02.516Z,10.50
2023-05-20T03:45:33.388Z,11.30
2023-05-20T03:48:03.605Z,10.00
2023-05-20T03:50:32.960Z,11.80
2023-05-20T03:53:01.921Z,11.90
2023-05-20T03:55:31.947Z,10.30
2023-05-20T03:58:01.217Z,10.60
2023-05-20T04:00:31.219Z,11.00
2023-05-20T04:03:00.797Z,11.00
2023-05-20T04:05:29.810Z,10.50
2023-05-20T04:07:58.814Z,10.10
2023-05-20T04:10:27.786Z,14.40
2023-05-20T04:12:56.918Z,12.40
2023-05-20T04:15:25.826Z,12.00
2023-05-20T04:17:55.193Z,13.30
2023-05-20T04:20:24.422Z,11.90
2023-05-20T04:22:54.601Z,10.70
2023-05-20T04:25:23.721Z,11.40
2023-05-20T04:27:53.602Z,11.80
2023-05-20T04:30:23.099Z,12.10
2023-05-20T04:32:53.155Z,13.40
2023-05-20T04:35:25.436Z,15.10
2023-05-20T04:37:54.901Z,11.80
2023-05-20T04:40:23.907Z,12.20
2023-05-20T04:42:52.963Z,12.10
2023-05-20T04:45:23.094Z,11.20
2023-05-20T04:47:52.762Z,10.90
2023-05-20T04:50:21.898Z,13.20
2023-05-20T04:52:53.833Z,12.60
2023-05-20T04:55:24.538Z,13.00
2023-05-20T04:57:53.585Z,10.90
2023-05-20T05:00:23.103Z,12.40
2023-05-20T05:02:52.127Z,13.10
2023-05-20T05:05:21.182Z,13.20
2023-05-20T05:07:50.263Z,12.10
2023-05-20T05:10:19.469Z,10.80
2023-05-20T05:12:48.335Z,13.60
2023-05-20T05:15:17.596Z,12.20
2023-05-20T05:17:46.857Z,11.00
2023-05-20T05:20:16.014Z,11.50
2023-05-20T05:22:45.289Z,10.00
2023-05-20T05:25:14.611Z,12.70
2023-05-20T05:27:44.077Z,13.00
2023-05-20T05:30:13.563Z,11.80
2023-05-20T05:32:42.788Z,13.80
2023-05-20T05:35:12.305Z,11.50
2023-05-20T05:37:41.515Z,11.40
2023-05-20T05:40:12.057Z,12.80
2023-05-20T05:42:41.128Z,9.90
2023-05-20T05:45:12.097Z,12.20
2023-05-20T05:47:41.532Z,11.00
2023-05-20T05:50:11.291Z,12.10
2023-05-20T05:52:40.770Z,10.30
2023-05-20T05:55:11.697Z,10.70
2023-05-20T05:57:40.642Z,11.10
2023-05-20T06:00:11.677Z,8.50
2023-05-20T06:02:40.897Z,9.20
2023-05-20T06:05:11.100Z,10.30
2023-05-20T06:07:40.034Z,7.30
2023-05-20T06:10:11.036Z,9.50
2023-05-20T06:12:39.992Z,9.70
2023-05-20T06:15:11.066Z,9.50
2023-05-20T06:17:40.115Z,9.70
2023-05-20T06:20:10.693Z,8.30
2023-05-20T06:22:39.683Z,8.40
2023-05-20T06:25:11.013Z,8.80
2023-05-20T06:27:39.925Z,8.70
2023-05-20T06:30:10.657Z,8.60
2023-05-20T06:32:39.646Z,8.20
2023-05-20T06:35:10.862Z,8.70
2023-05-20T06:37:40.083Z,8.60
2023-05-20T06:40:11.496Z,8.60
2023-05-20T06:42:40.325Z,9.30
2023-05-20T06:45:10.944Z,9.40
2023-05-20T06:47:40.331Z,8.00
2023-05-20T06:50:11.107Z,8.20
2023-05-20T06:52:40.178Z,7.70
2023-05-20T06:55:11.034Z,8.90
2023-05-20T06:57:40.010Z,8.00
2023-05-20T07:00:11.695Z,9.70
2023-05-20T07:02:41.921Z,8.70
2023-05-20T07:05:12.185Z,7.00
2023-05-20T07:07:41.191Z,9.40
2023-05-20T07:10:11.206Z,9.10
2023-05-20T07:12:40.584Z,10.00
2023-05-20T07:15:11.319Z,9.70
2023-05-20T07:17:40.370Z,9.80
2023-05-20T07:20:10.634Z,8.60
2023-05-20T07:22:39.727Z,8.60
2023-05-20T07:25:11.396Z,9.90
2023-05-20T07:27:40.598Z,8.80
2023-05-20T07:30:10.589Z,10.00
2023-05-20T07:32:39.711Z,8.10
2023-05-20T07:35:09.913Z,10.20
2023-05-20T07:37:38.890Z,8.70
2023-05-20T07:40:10.592Z,8.80
2023-05-20T07:42:39.643Z,7.80
2023-05-20T07:45:10.568Z,8.70
2023-05-20T07:47:39.946Z,8.20
2023-05-20T07:50:10.223Z,8.20
2023-05-20T07:52:54.591Z,7.80
2023-05-20T07:55:25.097Z,8.30
2023-05-20T07:57:54.155Z,7.90
2023-05-20T08:00:23.465Z,7.00
2023-05-20T08:02:52.489Z,9.60
2023-05-20T08:05:22.332Z,8.00
2023-05-20T08:07:51.261Z,7.80
2023-05-20T08:10:20.666Z,7.80
2023-05-20T08:12:49.704Z,7.50
2023-05-20T08:15:18.944Z,7.40
2023-05-20T08:17:47.864Z,8.10
2023-05-20T08:20:17.891Z,7.90
2023-05-20T08:22:46.883Z,8.60
2023-05-20T08:25:15.909Z,7.60
2023-05-20T08:27:44.994Z,8.00
2023-05-20T08:30:14.481Z,8.20
2023-05-20T08:32:43.625Z,9.20
2023-05-20T08:35:12.911Z,8.20
2023-05-20T08:37:42.115Z,8.80
2023-05-20T08:40:13.622Z,8.50
2023-05-20T08:42:43.337Z,8.10
2023-05-20T08:45:15.707Z,6.60
2023-05-20T08:47:45.568Z,8.30
2023-05-20T08:50:15.998Z,6.60
2023-05-20T08:52:46.732Z,7.60
2023-05-20T08:55:22.381Z,7.20
2023-05-20T08:57:53.915Z,7.60
2023-05-20T09:00:28.317Z,7.10
2023-05-20T09:03:00.897Z,8.40
2023-05-20T09:05:30.166Z,7.40
2023-05-20T09:08:07.051Z,6.20
2023-05-20T09:10:37.079Z,7.50
2023-05-20T09:13:07.310Z,7.30
2023-05-20T09:15:37.355Z,7.50
2023-05-20T09:18:08.120Z,7.20
2023-05-20T09:20:38.214Z,8.40
2023-05-20T09:23:08.767Z,8.30
2023-05-20T09:25:38.617Z,8.00
2023-05-20T09:28:08.765Z,7.80
2023-05-20T09:30:37.993Z,8.10
2023-05-20T09:33:08.867Z,7.90
2023-05-20T09:35:37.981Z,5.60
2023-05-20T09:38:09.399Z,7.70
2023-05-20T09:40:39.808Z,8.10
2023-05-20T09:43:10.691Z,8.20
2023-05-20T09:45:39.770Z,7.40
2023-05-20T09:48:10.892Z,5.70
2023-05-20T09:50:41.023Z,6.70
2023-05-20T09:53:11.726Z,7.50
2023-05-20T09:55:41.578Z,8.80
2023-05-20T09:58:14.782Z,6.50
2023-05-20T10:00:45.911Z,5.80
2023-05-20T10:03:15.090Z,6.80
2023-05-20T10:05:57.456Z,5.30
2023-05-20T10:09:03.625Z,6.50
2023-05-20T10:11:41.891Z,7.70
2023-05-20T10:14:26.213Z,7.20
2023-05-20T10:17:09.535Z,6.40
2023-05-20T10:19:39.239Z,7.00
2023-05-20T10:22:10.047Z,7.10
2023-05-20T10:24:40.944Z,6.60
2023-05-20T10:27:11.311Z,8.50
2023-05-20T10:29:51.913Z,6.10
2023-05-20T10:32:28.261Z,6.50
2023-05-20T10:35:01.400Z,8.60
2023-05-20T10:37:32.602Z,8.80
2023-05-20T10:40:08.479Z,7.30
2023-05-20T10:42:37.533Z,7.00
2023-05-20T10:45:09.051Z,7.70
2023-05-20T10:47:42.312Z,7.60
2023-05-20T10:50:28.645Z,7.80
2023-05-20T10:53:04.820Z,8.30
2023-05-20T10:55:38.255Z,7.80
2023-05-20T10:58:07.819Z,8.00
2023-05-20T11:00:37.749Z,6.40
2023-05-20T11:03:07.993Z,7.50
2023-05-20T11:05:39.000Z,6.70
2023-05-20T11:08:20.550Z,7.60
2023-05-20T11:10:58.071Z,7.30
2023-05-20T11:13:27.537Z,8.30
2023-05-20T11:15:57.599Z,7.40
2023-05-20T11:18:30.022Z,6.20
2023-05-20T11:20:59.757Z,6.50
2023-05-20T11:23:29.684Z,5.90
2023-05-20T11:25:58.913Z,7.10
2023-05-20T11:28:27.749Z,8.70
2023-05-20T11:30:56.839Z,7.40
2023-05-20T11:33:27.378Z,6.70
2023-05-20T11:35:57.110Z,6.60
2023-05-20T11:38:26.027Z,8.60
2023-05-20T11:40:56.100Z,8.30
2023-05-20T11:43:25.656Z,7.80
2023-05-20T11:45:56.202Z,8.90
2023-05-20T11:48:26.064Z,8.40
2023-05-20T11:50:56.434Z,8.60
2023-05-20T11:53:26.011Z,7.00
2023-05-20T11:55:56.290Z,8.80
2023-05-20T11:58:26.370Z,6.70
2023-05-20T12:01:02.358Z,9.50
2023-05-20T12:03:38.776Z,8.20
2023-05-20T12:06:07.790Z,6.60
2023-05-20T12:08:37.028Z,6.20
2023-05-20T12:11:05.992Z,8.40
2023-05-20T12:13:35.610Z,5.60
2023-05-20T12:16:05.731Z,4.60
2023-05-20T12:18:34.821Z,5.60
2023-05-20T12:21:03.749Z,7.10
2023-05-20T12:23:33.560Z,4.60
2023-05-20T12:26:02.540Z,6.60
2023-05-20T12:28:32.757Z,5.80
2023-05-20T12:31:01.868Z,5.40
2023-05-20T12:33:30.870Z,5.70
2023-05-20T12:36:00.140Z,6.80
2023-05-20T12:38:29.233Z,4.70
2023-05-20T12:40:58.265Z,4.80
2023-05-20T12:43:27.160Z,5.80
2023-05-20T12:45:56.463Z,6.80
2023-05-20T12:48:25.576Z,6.10
2023-05-20T12:50:54.825Z,5.70
2023-05-20T12:53:23.705Z,7.20
2023-05-20T12:55:52.814Z,5.60
2023-05-20T12:58:21.867Z,6.20
2023-05-20T13:00:51.016Z,5.70
2023-05-20T13:03:20.157Z,7.10
2023-05-20T13:05:49.079Z,7.70
2023-05-20T13:08:17.891Z,6.40
2023-05-20T13:10:46.761Z,6.50
2023-05-20T13:13:20.757Z,6.20
2023-05-20T13:15:49.845Z,6.60
2023-05-20T13:18:19.476Z,4.90
2023-05-20T13:20:48.499Z,6.80
2023-05-20T13:23:17.330Z,5.30
2023-05-20T13:25:46.308Z,5.00
2023-05-20T13:28:18.283Z,4.00
2023-05-20T13:30:47.455Z,5.50
2023-05-20T13:33:16.573Z,5.90
2023-05-20T13:35:45.636Z,4.70
2023-05-20T13:38:14.484Z,5.40
2023-05-20T13:40:43.536Z,5.20
2023-05-20T13:43:12.496Z,4.50
2023-05-20T13:45:42.616Z,6.40
2023-05-20T13:48:11.676Z,4.40
2023-05-20T13:50:41.078Z,4.10
2023-05-20T13:53:11.956Z,3.70
2023-05-20T13:55:41.777Z,3.80
2023-05-20T13:58:10.809Z,5.00
2023-05-20T14:00:40.067Z,4.40
2023-05-20T14:03:09.743Z,4.30
2023-05-20T14:05:40.152Z,4.00
2023-05-20T14:08:09.095Z,4.00
2023-05-20T14:10:38.196Z,5.00
2023-05-20T14:13:08.876Z,3.60
2023-05-20T14:15:37.866Z,5.60
2023-05-20T14:18:06.906Z,5.20
2023-05-20T14:20:36.133Z,4.40
2023-05-20T14:23:05.459Z,4.50
2023-05-20T14:25:34.436Z,4.10
2023-05-20T14:28:03.762Z,4.10
2023-05-20T14:30:33.243Z,4.30
2023-05-20T14:33:02.448Z,5.10
2023-05-20T14:35:31.482Z,5.70
2023-05-20T14:38:00.900Z,4.90
2023-05-20T14:40:30.125Z,4.80
2023-05-20T14:42:59.267Z,5.30
2023-05-20T14:45:28.646Z,4.90
2023-05-20T14:47:57.817Z,5.30
2023-05-20T14:50:27.012Z,4.60
2023-05-20T14:52:56.010Z,5.20
2023-05-20T14:55:25.158Z,5.10
2023-05-20T14:57:54.282Z,5.40
2023-05-20T15:00:23.315Z,5.90
2023-05-20T15:02:52.507Z,4.40
2023-05-20T15:05:21.563Z,4.90
2023-05-20T15:07:51.024Z,4.90
2023-05-20T15:10:20.132Z,5.00
2023-05-20T15:12:49.309Z,5.70
2023-05-20T15:15:18.521Z,5.60
2023-05-20T15:17:47.488Z,5.30
2023-05-20T15:20:16.695Z,4.80
2023-05-20T15:22:47.251Z,4.90
2023-05-20T15:25:16.690Z,4.80
2023-05-20T15:27:45.785Z,7.00
2023-05-20T15:30:16.595Z,5.40
2023-05-20T15:32:45.582Z,4.10
2023-05-20T15:35:14.739Z,5.70
2023-05-20T15:37:43.855Z,4.20
2023-05-20T15:40:13.508Z,5.60
2023-05-20T15:42:42.665Z,6.30
2023-05-20T15:45:12.291Z,6.90
2023-05-20T15:47:42.730Z,4.60
2023-05-20T15:50:12.316Z,4.20
2023-05-20T15:52:41.379Z,5.20
2023-05-20T15:55:11.349Z,4.80
2023-05-20T15:57:40.297Z,4.80
2023-05-20T16:00:11.738Z,5.00
2023-05-20T16:02:42.341Z,4.90
2023-05-20T16:05:11.848Z,5.60
2023-05-20T16:07:41.514Z,5.30
2023-05-20T16:10:11.562Z,4.70
2023-05-20T16:12:40.704Z,4.50
2023-05-20T16:15:11.446Z,4.90
2023-05-20T16:17:40.713Z,5.20
2023-05-20T16:20:11.407Z,5.00
2023-05-20T16:22:41.089Z,4.60
2023-05-20T16:25:11.093Z,4.00
2023-05-20T16:27:40.011Z,4.80
2023-05-20T16:30:11.644Z,4.70
2023-05-20T16:32:41.101Z,4.60
2023-05-20T16:35:10.869Z,5.00
2023-05-20T16:37:39.957Z,5.70
2023-05-20T16:40:10.607Z,4.30
2023-05-20T16:42:39.461Z,4.50
2023-05-20T16:45:10.343Z,5.00
2023-05-20T16:47:39.346Z,5.00
2023-05-20T16:50:13.348Z,3.80
2023-05-20T16:52:42.474Z,4.00
2023-05-20T16:55:13.076Z,4.10
2023-05-20T16:57:42.761Z,4.20
2023-05-20T17:00:13.530Z,5.30
2023-05-20T17:02:42.458Z,4.70
2023-05-20T17:05:11.707Z,5.20
2023-05-20T17:07:40.681Z,5.50
2023-05-20T17:10:11.004Z,4.10
2023-05-20T17:12:40.040Z,4.80
2023-05-20T17:15:10.509Z,5.10
2023-05-20T17:17:39.601Z,4.60
2023-05-20T17:20:10.896Z,5.80
2023-05-20T17:22:40.057Z,5.40
2023-05-20T17:25:10.402Z,6.10
2023-05-20T17:27:39.439Z,5.10
2023-05-20T17:30:09.740Z,5.80
2023-05-20T17:32:39.984Z,5.00
2023-05-20T17:35:09.953Z,4.90
2023-05-20T17:37:38.984Z,4.50
2023-05-20T17:40:10.644Z,5.90
2023-05-20T17:42:39.836Z,5.50
2023-05-20T17:45:10.750Z,4.90
2023-05-20T17:47:39.958Z,5.50
2023-05-20T17:50:10.754Z,5.10
2023-05-20T17:52:39.611Z,4.60
2023-05-20T17:55:09.480Z,4.30
2023-05-20T17:57:38.553Z,4.90
2023-05-20T18:00:10.428Z,6.50
2023-05-20T18:02:46.720Z,4.60
2023-05-20T18:05:16.641Z,4.70
2023-05-20T18:07:45.667Z,4.70
2023-05-20T18:10:14.659Z,5.60
2023-05-20T18:12:44.841Z,6.20
2023-05-20T18:15:13.951Z,5.60
2023-05-20T18:17:44.186Z,5.70
2023-05-20T18:20:14.734Z,5.10
2023-05-20T18:22:45.153Z,7.00
2023-05-20T18:25:14.899Z,10.00
2023-05-20T18:27:44.144Z,5.30
2023-05-20T18:30:13.373Z,21.70
2023-05-20T18:32:42.482Z,7.10
2023-05-20T18:35:11.746Z,5.70
2023-05-20T18:37:41.102Z,5.30
2023-05-20T18:40:12.006Z,5.70
2023-05-20T18:42:40.971Z,5.40
2023-05-20T18:45:11.690Z,5.10
2023-05-20T18:47:40.913Z,5.10
2023-05-20T18:50:11.552Z,5.20
2023-05-20T18:52:40.881Z,7.70
2023-05-20T18:55:10.413Z,5.60
2023-05-20T18:57:39.541Z,6.60
2023-05-20T19:00:11.586Z,5.50
2023-05-20T19:02:41.419Z,4.80
2023-05-20T19:05:11.885Z,5.10
2023-05-20T19:07:40.902Z,6.00
2023-05-20T19:10:11.116Z,4.50
2023-05-20T19:12:39.929Z,6.10
2023-05-20T19:15:11.013Z,3.70
2023-05-20T19:17:40.183Z,8.90
2023-05-20T19:20:10.880Z,6.70
2023-05-20T19:22:39.756Z,4.60
2023-05-20T19:25:09.895Z,4.70
2023-05-20T19:27:38.908Z,4.60
2023-05-20T19:30:11.134Z,5.40
2023-05-20T19:32:40.328Z,5.70
2023-05-20T19:35:10.156Z,5.40
2023-05-20T19:37:39.166Z,4.90
2023-05-20T19:40:10.426Z,5.60
2023-05-20T19:42:39.487Z,4.80
2023-05-20T19:45:10.735Z,4.90
2023-05-20T19:47:39.979Z,5.50
2023-05-20T19:50:10.691Z,5.50
2023-05-20T19:52:40.684Z,5.10
2023-05-20T19:55:10.610Z,5.40
2023-05-20T19:57:39.539Z,4.50
2023-05-20T20:00:10.854Z,6.50
2023-05-20T20:02:40.444Z,6.60
2023-05-20T20:05:10.401Z,6.30
2023-05-20T20:07:39.487Z,6.00
2023-05-20T20:10:10.489Z,6.70
2023-05-20T20:12:39.499Z,5.00
2023-05-20T20:15:11.054Z,5.50
2023-05-20T20:17:44.703Z,5.90
2023-05-20T20:20:14.738Z,5.50
2023-05-20T20:22:43.842Z,7.00
2023-05-20T20:25:13.768Z,6.00
2023-05-20T20:27:43.437Z,5.20
2023-05-20T20:30:14.538Z,9.10
2023-05-20T20:32:43.626Z,4.90
2023-05-20T20:35:12.758Z,5.10
2023-05-20T20:37:41.638Z,5.30
2023-05-20T20:40:12.740Z,5.10
2023-05-20T20:42:44.197Z,5.50
2023-05-20T20:45:14.676Z,5.80
2023-05-20T20:47:44.026Z,8.20
2023-05-20T20:50:13.228Z,6.80
2023-05-20T20:52:42.910Z,5.60
2023-05-20T20:55:12.119Z,6.60
2023-05-20T20:57:41.456Z,7.00
2023-05-20T21:00:16.978Z,6.00
2023-05-20T21:05:16.324Z,6.80
2023-05-20T21:07:49.258Z,6.00
2023-05-20T21:10:18.709Z,7.10
2023-05-20T21:12:47.728Z,5.20
2023-05-20T21:15:17.069Z,7.00
2023-05-20T21:17:46.207Z,6.50
2023-05-20T21:20:15.411Z,6.90
2023-05-20T21:22:44.525Z,6.70
2023-05-20T21:25:13.734Z,6.30
2023-05-20T21:27:42.762Z,5.50
2023-05-20T21:30:12.627Z,6.80
2023-05-20T21:32:41.811Z,6.20
2023-05-20T21:35:11.169Z,7.40
2023-05-20T21:37:40.307Z,7.80
2023-05-20T21:40:10.977Z,7.30
2023-05-20T21:42:39.887Z,5.80
2023-05-20T21:45:10.982Z,6.30
2023-05-20T21:47:40.068Z,7.00
2023-05-20T21:50:11.081Z,6.20
2023-05-20T21:52:40.002Z,7.40
2023-05-20T21:55:10.626Z,6.30
2023-05-20T21:57:39.645Z,6.70
2023-05-20T22:00:14.166Z,7.80
2023-05-20T22:02:43.503Z,8.30
2023-05-20T22:05:12.986Z,6.00
2023-05-20T22:07:43.784Z,7.40
2023-05-20T22:10:13.654Z,6.40
2023-05-20T22:12:42.874Z,9.00
2023-05-20T22:15:12.567Z,6.20
2023-05-20T22:17:41.804Z,8.90
2023-05-20T22:20:13.189Z,7.50
2023-05-20T22:22:42.417Z,6.30
2023-05-20T22:25:12.131Z,6.60
2023-05-20T22:27:42.299Z,6.40
2023-05-20T22:30:12.870Z,7.10
2023-05-20T22:32:42.071Z,7.50
2023-05-20T22:35:12.656Z,6.50
2023-05-20T22:37:41.539Z,6.20
2023-05-20T22:40:11.627Z,8.80
2023-05-20T22:42:40.631Z,6.80
2023-05-20T22:45:11.186Z,7.30
2023-05-20T22:47:40.338Z,6.20
2023-05-20T22:50:13.017Z,8.30
2023-05-20T22:52:42.418Z,6.50
2023-05-20T22:55:12.030Z,6.80
2023-05-20T22:57:41.041Z,4.90
2023-05-20T23:00:14.905Z,6.10
2023-05-20T23:02:45.119Z,6.40
2023-05-20T23:05:14.115Z,6.20
2023-05-20T23:07:44.301Z,6.20
2023-05-20T23:10:13.236Z,6.70
2023-05-20T23:12:42.190Z,6.10
2023-05-20T23:15:12.441Z,6.60
2023-05-20T23:17:41.520Z,6.60
2023-05-20T23:20:13.616Z,6.50
2023-05-20T23:22:42.562Z,6.60
2023-05-20T23:25:11.835Z,6.30
2023-05-20T23:27:40.785Z,6.40
2023-05-20T23:30:10.994Z,6.20
2023-05-20T23:32:40.059Z,5.30
2023-05-20T23:35:12.539Z,6.30
2023-05-20T23:37:41.494Z,5.30
2023-05-20T23:40:11.789Z,6.30
2023-05-20T23:42:40.920Z,7.50
2023-05-20T23:45:12.152Z,7.10
2023-05-20T23:47:41.518Z,6.10
2023-05-20T23:50:13.182Z,6.20
2023-05-20T23:52:42.178Z,6.70
2023-05-20T23:55:12.336Z,6.80
2023-05-20T23:57:41.426Z,6.00
